Terminal Aerodrome Forecast
Issued by NWS

Home | Current Version | Previous Version | Text Only | Print | Product List | Glossary On
Versions: 1 2 3 4 5 6 7 8 9 10 11 12 13 14 15
689
FTUS45 KABQ 222333
TAFTCC
TAF
KTCC 222333Z 2300/2324 08010G18KT P6SM SCT050
     FM230100 05010KT P6SM VCSH BKN040 BKN090
      TEMPO 2301/2304 5SM TSRA BKN030CB
     FM230900 02015G23KT P6SM VCSH OVC040
     FM231400 01013KT P6SM SCT050 SCT090
     FM232000 35010G18KT P6SM SCT050=

USA.gov is the U.S. government's official web portal to all federal, state and local government web resources and services.